sensor_id;sensor_type;location;lat;lon;timestamp;P1;durP1;ratioP1;P2;durP2;ratioP2
55647;SDS011;45266;48.756;9.246;2022-08-30T00:00:50;6.78;;;5.95;;
55647;SDS011;45266;48.756;9.246;2022-08-30T00:02:05;5.95;;;5.25;;
55647;SDS011;45266;48.756;9.246;2022-08-30T00:03:07;8.55;;;5.75;;
55647;SDS011;45266;48.756;9.246;2022-08-30T00:04:11;7.43;;;5.18;;
55647;SDS011;45266;48.756;9.246;2022-08-30T00:05:15;6.35;;;5.10;;
55647;SDS011;45266;48.756;9.246;2022-08-30T00:06:18;6.25;;;5.10;;
55647;SDS011;45266;48.756;9.246;2022-08-30T00:07:20;9.45;;;5.35;;
55647;SDS011;45266;48.756;9.246;2022-08-30T00:08:22;7.47;;;5.35;;
55647;SDS011;45266;48.756;9.246;2022-08-30T00:09:24;6.20;;;5.07;;
55647;SDS011;45266;48.756;9.246;2022-08-30T00:10:26;7.70;;;5.38;;
55647;SDS011;45266;48.756;9.246;2022-08-30T00:11:31;7.07;;;5.07;;
55647;SDS011;45266;48.756;9.246;2022-08-30T00:12:33;5.25;;;4.75;;
55647;SDS011;45266;48.756;9.246;2022-08-30T00:13:36;6.28;;;4.97;;
55647;SDS011;45266;48.756;9.246;2022-08-30T00:14:39;6.15;;;5.20;;
55647;SDS011;45266;48.756;9.246;2022-08-30T00:15:41;7.65;;;4.85;;
55647;SDS011;45266;48.756;9.246;2022-08-30T00:16:44;5.88;;;5.28;;
55647;SDS011;45266;48.756;9.246;2022-08-30T00:17:46;7.90;;;5.70;;
55647;SDS011;45266;48.756;9.246;2022-08-30T00:18:47;10.10;;;5.50;;
55647;SDS011;45266;48.756;9.246;2022-08-30T00:19:49;6.70;;;5.18;;
55647;SDS011;45266;48.756;9.246;2022-08-30T00:20:52;7.72;;;5.03;;
55647;SDS011;45266;48.756;9.246;2022-08-30T00:21:55;7.65;;;5.70;;
55647;SDS011;45266;48.756;9.246;2022-08-30T00:22:57;7.47;;;5.68;;
55647;SDS011;45266;48.756;9.246;2022-08-30T00:23:59;7.03;;;5.50;;
55647;SDS011;45266;48.756;9.246;2022-08-30T00:25:01;8.57;;;5.25;;
55647;SDS011;45266;48.756;9.246;2022-08-30T00:26:04;5.63;;;4.95;;
55647;SDS011;45266;48.756;9.246;2022-08-30T00:27:06;7.43;;;5.65;;
55647;SDS011;45266;48.756;9.246;2022-08-30T00:28:08;7.15;;;5.53;;
55647;SDS011;45266;48.756;9.246;2022-08-30T00:29:11;6.50;;;5.40;;
55647;SDS011;45266;48.756;9.246;2022-08-30T00:30:14;6.88;;;5.60;;
55647;SDS011;45266;48.756;9.246;2022-08-30T00:31:17;7.53;;;5.65;;
55647;SDS011;45266;48.756;9.246;2022-08-30T00:32:19;8.68;;;5.50;;
55647;SDS011;45266;48.756;9.246;2022-08-30T00:33:21;6.60;;;5.47;;
55647;SDS011;45266;48.756;9.246;2022-08-30T00:34:23;7.05;;;5.55;;
55647;SDS011;45266;48.756;9.246;2022-08-30T00:35:25;6.43;;;5.82;;
55647;SDS011;45266;48.756;9.246;2022-08-30T00:36:27;5.72;;;5.18;;
55647;SDS011;45266;48.756;9.246;2022-08-30T00:37:29;8.45;;;6.05;;
55647;SDS011;45266;48.756;9.246;2022-08-30T00:38:31;9.27;;;5.72;;
55647;SDS011;45266;48.756;9.246;2022-08-30T00:39:33;5.80;;;5.20;;
55647;SDS011;45266;48.756;9.246;2022-08-30T00:40:35;7.20;;;5.70;;
55647;SDS011;45266;48.756;9.246;2022-08-30T00:41:37;6.80;;;5.05;;
55647;SDS011;45266;48.756;9.246;2022-08-30T00:42:40;6.40;;;5.80;;
55647;SDS011;45266;48.756;9.246;2022-08-30T00:43:43;6.90;;;5.38;;
55647;SDS011;45266;48.756;9.246;2022-08-30T00:44:45;7.15;;;5.68;;
55647;SDS011;45266;48.756;9.246;2022-08-30T00:45:48;7.90;;;5.28;;
55647;SDS011;45266;48.756;9.246;2022-08-30T00:46:50;7.90;;;5.80;;
55647;SDS011;45266;48.756;9.246;2022-08-30T00:47:53;6.55;;;5.72;;
55647;SDS011;45266;48.756;9.246;2022-08-30T00:48:55;6.90;;;5.55;;
55647;SDS011;45266;48.756;9.246;2022-08-30T00:50:00;7.45;;;5.47;;
55647;SDS011;45266;48.756;9.246;2022-08-30T00:51:03;7.85;;;5.60;;
55647;SDS011;45266;48.756;9.246;2022-08-30T00:52:08;6.10;;;5.28;;
55647;SDS011;45266;48.756;9.246;2022-08-30T00:53:11;7.60;;;5.38;;
55647;SDS011;45266;48.756;9.246;2022-08-30T00:54:17;7.15;;;5.55;;
55647;SDS011;45266;48.756;9.246;2022-08-30T00:55:20;11.13;;;6.20;;
55647;SDS011;45266;48.756;9.246;2022-08-30T00:56:22;7.38;;;6.13;;
55647;SDS011;45266;48.756;9.246;2022-08-30T00:57:25;7.28;;;5.60;;
55647;SDS011;45266;48.756;9.246;2022-08-30T00:58:28;8.07;;;5.93;;
55647;SDS011;45266;48.756;9.246;2022-08-30T00:59:38;8.48;;;5.80;;
55647;SDS011;45266;48.756;9.246;2022-08-30T01:00:41;7.03;;;5.88;;
55647;SDS011;45266;48.756;9.246;2022-08-30T01:01:44;6.20;;;5.50;;
55647;SDS011;45266;48.756;9.246;2022-08-30T01:02:46;7.13;;;5.70;;
55647;SDS011;45266;48.756;9.246;2022-08-30T01:03:51;6.00;;;5.32;;
55647;SDS011;45266;48.756;9.246;2022-08-30T01:04:54;6.45;;;5.70;;
55647;SDS011;45266;48.756;9.246;2022-08-30T01:05:56;6.60;;;5.40;;
55647;SDS011;45266;48.756;9.246;2022-08-30T01:06:59;8.00;;;5.53;;
55647;SDS011;45266;48.756;9.246;2022-08-30T01:08:01;7.78;;;5.60;;
55647;SDS011;45266;48.756;9.246;2022-08-30T01:09:03;8.38;;;5.93;;
55647;SDS011;45266;48.756;9.246;2022-08-30T01:10:06;7.72;;;5.22;;
55647;SDS011;45266;48.756;9.246;2022-08-30T01:11:10;7.72;;;6.07;;
55647;SDS011;45266;48.756;9.246;2022-08-30T01:12:14;6.85;;;6.03;;
55647;SDS011;45266;48.756;9.246;2022-08-30T01:13:18;5.90;;;5.38;;
55647;SDS011;45266;48.756;9.246;2022-08-30T01:14:22;6.70;;;5.38;;
55647;SDS011;45266;48.756;9.246;2022-08-30T01:15:26;7.72;;;5.90;;
55647;SDS011;45266;48.756;9.246;2022-08-30T01:16:29;8.25;;;5.90;;
55647;SDS011;45266;48.756;9.246;2022-08-30T01:17:32;6.30;;;5.63;;
55647;SDS011;45266;48.756;9.246;2022-08-30T01:18:35;6.35;;;5.70;;
55647;SDS011;45266;48.756;9.246;2022-08-30T01:20:43;6.68;;;5.15;;
55647;SDS011;45266;48.756;9.246;2022-08-30T01:21:53;7.88;;;5.63;;
55647;SDS011;45266;48.756;9.246;2022-08-30T01:23:05;7.75;;;5.53;;
55647;SDS011;45266;48.756;9.246;2022-08-30T01:24:12;8.45;;;6.10;;
55647;SDS011;45266;48.756;9.246;2022-08-30T01:25:16;6.90;;;5.93;;
55647;SDS011;45266;48.756;9.246;2022-08-30T01:26:21;6.97;;;5.65;;
55647;SDS011;45266;48.756;9.246;2022-08-30T01:27:24;10.00;;;6.50;;
55647;SDS011;45266;48.756;9.246;2022-08-30T01:28:28;10.38;;;6.10;;
55647;SDS011;45266;48.756;9.246;2022-08-30T01:29:31;7.93;;;6.57;;
55647;SDS011;45266;48.756;9.246;2022-08-30T01:30:33;9.05;;;6.13;;
55647;SDS011;45266;48.756;9.246;2022-08-30T01:31:35;7.03;;;6.00;;
55647;SDS011;45266;48.756;9.246;2022-08-30T01:32:38;6.18;;;5.53;;
55647;SDS011;45266;48.756;9.246;2022-08-30T01:33:43;10.45;;;6.03;;
55647;SDS011;45266;48.756;9.246;2022-08-30T01:34:45;7.47;;;5.85;;
55647;SDS011;45266;48.756;9.246;2022-08-30T01:36:55;7.68;;;6.07;;
55647;SDS011;45266;48.756;9.246;2022-08-30T01:37:56;7.55;;;6.20;;
55647;SDS011;45266;48.756;9.246;2022-08-30T01:38:59;8.00;;;6.05;;
55647;SDS011;45266;48.756;9.246;2022-08-30T01:40:02;7.68;;;6.20;;
55647;SDS011;45266;48.756;9.246;2022-08-30T01:41:08;6.53;;;5.55;;
55647;SDS011;45266;48.756;9.246;2022-08-30T01:42:14;7.95;;;6.00;;
55647;SDS011;45266;48.756;9.246;2022-08-30T01:43:18;10.02;;;6.68;;
55647;SDS011;45266;48.756;9.246;2022-08-30T01:44:20;7.13;;;6.22;;
55647;SDS011;45266;48.756;9.246;2022-08-30T01:45:21;7.90;;;5.70;;
55647;SDS011;45266;48.756;9.246;2022-08-30T01:46:27;9.20;;;6.38;;
55647;SDS011;45266;48.756;9.246;2022-08-30T01:47:31;8.40;;;5.50;;
55647;SDS011;45266;48.756;9.246;2022-08-30T01:48:33;6.97;;;6.20;;
55647;SDS011;45266;48.756;9.246;2022-08-30T01:49:35;8.00;;;5.95;;
55647;SDS011;45266;48.756;9.246;2022-08-30T01:50:38;8.60;;;5.78;;
55647;SDS011;45266;48.756;9.246;2022-08-30T01:51:40;8.52;;;6.57;;
55647;SDS011;45266;48.756;9.246;2022-08-30T01:52:42;8.25;;;6.10;;
55647;SDS011;45266;48.756;9.246;2022-08-30T01:53:44;8.20;;;6.40;;
55647;SDS011;45266;48.756;9.246;2022-08-30T01:54:46;10.40;;;5.72;;
55647;SDS011;45266;48.756;9.246;2022-08-30T01:55:48;7.28;;;6.00;;
55647;SDS011;45266;48.756;9.246;2022-08-30T01:56:50;8.82;;;6.53;;
55647;SDS011;45266;48.756;9.246;2022-08-30T01:57:52;6.85;;;6.05;;
55647;SDS011;45266;48.756;9.246;2022-08-30T01:58:54;7.97;;;6.53;;
55647;SDS011;45266;48.756;9.246;2022-08-30T02:00:03;7.43;;;6.40;;
55647;SDS011;45266;48.756;9.246;2022-08-30T02:01:09;9.25;;;5.88;;
55647;SDS011;45266;48.756;9.246;2022-08-30T02:02:18;7.85;;;5.85;;
55647;SDS011;45266;48.756;9.246;2022-08-30T02:03:23;9.10;;;6.07;;
55647;SDS011;45266;48.756;9.246;2022-08-30T02:04:26;9.13;;;6.57;;
55647;SDS011;45266;48.756;9.246;2022-08-30T02:05:28;7.50;;;6.63;;
55647;SDS011;45266;48.756;9.246;2022-08-30T02:06:30;7.57;;;6.13;;
55647;SDS011;45266;48.756;9.246;2022-08-30T02:07:32;9.73;;;6.30;;
55647;SDS011;45266;48.756;9.246;2022-08-30T02:08:33;8.43;;;5.85;;
55647;SDS011;45266;48.756;9.246;2022-08-30T02:09:36;11.20;;;6.38;;
55647;SDS011;45266;48.756;9.246;2022-08-30T02:10:38;7.15;;;6.32;;
55647;SDS011;45266;48.756;9.246;2022-08-30T02:11:40;10.15;;;6.30;;
55647;SDS011;45266;48.756;9.246;2022-08-30T02:12:42;7.30;;;6.55;;
55647;SDS011;45266;48.756;9.246;2022-08-30T02:13:44;9.32;;;6.43;;
55647;SDS011;45266;48.756;9.246;2022-08-30T02:14:46;8.60;;;5.93;;
55647;SDS011;45266;48.756;9.246;2022-08-30T02:15:48;7.07;;;6.18;;
55647;SDS011;45266;48.756;9.246;2022-08-30T02:16:50;7.30;;;6.55;;
55647;SDS011;45266;48.756;9.246;2022-08-30T02:17:51;6.78;;;5.75;;
55647;SDS011;45266;48.756;9.246;2022-08-30T02:18:54;7.70;;;6.38;;
55647;SDS011;45266;48.756;9.246;2022-08-30T02:19:59;6.50;;;5.90;;
55647;SDS011;45266;48.756;9.246;2022-08-30T02:21:00;9.18;;;7.07;;
55647;SDS011;45266;48.756;9.246;2022-08-30T02:22:03;8.77;;;6.35;;
55647;SDS011;45266;48.756;9.246;2022-08-30T02:23:23;15.18;;;6.70;;
55647;SDS011;45266;48.756;9.246;2022-08-30T02:24:25;10.00;;;6.18;;
55647;SDS011;45266;48.756;9.246;2022-08-30T02:25:27;6.97;;;5.65;;
55647;SDS011;45266;48.756;9.246;2022-08-30T02:26:29;7.45;;;6.38;;
55647;SDS011;45266;48.756;9.246;2022-08-30T02:27:31;7.35;;;6.22;;
55647;SDS011;45266;48.756;9.246;2022-08-30T02:28:33;6.75;;;6.10;;
55647;SDS011;45266;48.756;9.246;2022-08-30T02:29:43;10.35;;;6.78;;
55647;SDS011;45266;48.756;9.246;2022-08-30T02:30:45;8.93;;;6.55;;
55647;SDS011;45266;48.756;9.246;2022-08-30T02:31:48;9.95;;;7.07;;
55647;SDS011;45266;48.756;9.246;2022-08-30T02:32:50;7.32;;;6.30;;
55647;SDS011;45266;48.756;9.246;2022-08-30T02:33:52;6.80;;;6.07;;
55647;SDS011;45266;48.756;9.246;2022-08-30T02:34:54;8.52;;;6.53;;
55647;SDS011;45266;48.756;9.246;2022-08-30T02:35:56;8.07;;;6.22;;
55647;SDS011;45266;48.756;9.246;2022-08-30T02:36:58;7.63;;;6.78;;
55647;SDS011;45266;48.756;9.246;2022-08-30T02:38:01;7.95;;;6.40;;
55647;SDS011;45266;48.756;9.246;2022-08-30T02:39:03;7.95;;;6.43;;
55647;SDS011;45266;48.756;9.246;2022-08-30T02:40:04;9.50;;;6.50;;
55647;SDS011;45266;48.756;9.246;2022-08-30T02:41:07;6.85;;;6.15;;
55647;SDS011;45266;48.756;9.246;2022-08-30T02:42:09;8.35;;;6.28;;
55647;SDS011;45266;48.756;9.246;2022-08-30T02:43:11;8.10;;;6.32;;
55647;SDS011;45266;48.756;9.246;2022-08-30T02:44:13;6.97;;;6.28;;
55647;SDS011;45266;48.756;9.246;2022-08-30T02:45:14;7.72;;;6.28;;
55647;SDS011;45266;48.756;9.246;2022-08-30T02:46:19;6.50;;;5.85;;
55647;SDS011;45266;48.756;9.246;2022-08-30T02:47:21;8.00;;;6.10;;
55647;SDS011;45266;48.756;9.246;2022-08-30T02:48:22;9.68;;;7.18;;
55647;SDS011;45266;48.756;9.246;2022-08-30T02:49:24;9.32;;;7.25;;
55647;SDS011;45266;48.756;9.246;2022-08-30T02:50:37;8.63;;;6.28;;
55647;SDS011;45266;48.756;9.246;2022-08-30T02:51:44;8.68;;;6.78;;
55647;SDS011;45266;48.756;9.246;2022-08-30T02:52:45;8.40;;;6.50;;
55647;SDS011;45266;48.756;9.246;2022-08-30T02:53:48;8.25;;;6.72;;
55647;SDS011;45266;48.756;9.246;2022-08-30T02:54:50;10.77;;;6.65;;
55647;SDS011;45266;48.756;9.246;2022-08-30T02:55:52;7.55;;;6.78;;
55647;SDS011;45266;48.756;9.246;2022-08-30T02:56:53;8.48;;;6.38;;
55647;SDS011;45266;48.756;9.246;2022-08-30T02:57:56;11.13;;;6.95;;
55647;SDS011;45266;48.756;9.246;2022-08-30T02:58:58;7.90;;;6.55;;
55647;SDS011;45266;48.756;9.246;2022-08-30T03:00:00;9.18;;;6.45;;
55647;SDS011;45266;48.756;9.246;2022-08-30T03:01:02;11.50;;;6.18;;
55647;SDS011;45266;48.756;9.246;2022-08-30T03:02:06;8.40;;;6.38;;
55647;SDS011;45266;48.756;9.246;2022-08-30T03:03:07;7.97;;;6.75;;
55647;SDS011;45266;48.756;9.246;2022-08-30T03:04:10;9.95;;;6.85;;
55647;SDS011;45266;48.756;9.246;2022-08-30T03:05:12;8.40;;;6.80;;
55647;SDS011;45266;48.756;9.246;2022-08-30T03:06:16;6.65;;;5.88;;
55647;SDS011;45266;48.756;9.246;2022-08-30T03:07:17;9.82;;;6.60;;
55647;SDS011;45266;48.756;9.246;2022-08-30T03:08:19;7.88;;;7.05;;
55647;SDS011;45266;48.756;9.246;2022-08-30T03:09:22;8.80;;;6.53;;
55647;SDS011;45266;48.756;9.246;2022-08-30T03:10:23;8.07;;;6.78;;
55647;SDS011;45266;48.756;9.246;2022-08-30T03:11:27;8.10;;;6.22;;
55647;SDS011;45266;48.756;9.246;2022-08-30T03:12:29;7.97;;;6.30;;
55647;SDS011;45266;48.756;9.246;2022-08-30T03:13:34;8.45;;;6.82;;
55647;SDS011;45266;48.756;9.246;2022-08-30T03:14:37;10.68;;;6.82;;
55647;SDS011;45266;48.756;9.246;2022-08-30T03:15:39;7.68;;;6.47;;
55647;SDS011;45266;48.756;9.246;2022-08-30T03:16:41;7.72;;;6.78;;
55647;SDS011;45266;48.756;9.246;2022-08-30T03:17:43;7.90;;;6.63;;
55647;SDS011;45266;48.756;9.246;2022-08-30T03:18:45;7.05;;;6.35;;
55647;SDS011;45266;48.756;9.246;2022-08-30T03:19:46;9.52;;;6.43;;
55647;SDS011;45266;48.756;9.246;2022-08-30T03:20:48;9.38;;;6.50;;
55647;SDS011;45266;48.756;9.246;2022-08-30T03:21:55;8.48;;;6.43;;
55647;SDS011;45266;48.756;9.246;2022-08-30T03:22:56;7.90;;;7.10;;
55647;SDS011;45266;48.756;9.246;2022-08-30T03:23:59;11.85;;;6.90;;
55647;SDS011;45266;48.756;9.246;2022-08-30T03:25:01;8.07;;;6.30;;
55647;SDS011;45266;48.756;9.246;2022-08-30T03:26:03;8.80;;;6.43;;
55647;SDS011;45266;48.756;9.246;2022-08-30T03:27:04;7.22;;;6.30;;
55647;SDS011;45266;48.756;9.246;2022-08-30T03:28:08;9.68;;;6.72;;
55647;SDS011;45266;48.756;9.246;2022-08-30T03:29:09;10.25;;;6.32;;
55647;SDS011;45266;48.756;9.246;2022-08-30T03:30:12;11.40;;;6.78;;
55647;SDS011;45266;48.756;9.246;2022-08-30T03:31:14;9.13;;;6.63;;
55647;SDS011;45266;48.756;9.246;2022-08-30T03:32:16;8.18;;;6.38;;
55647;SDS011;45266;48.756;9.246;2022-08-30T03:33:18;7.25;;;6.53;;
55647;SDS011;45266;48.756;9.246;2022-08-30T03:34:22;10.07;;;6.80;;
55647;SDS011;45266;48.756;9.246;2022-08-30T03:35:25;7.57;;;6.55;;
55647;SDS011;45266;48.756;9.246;2022-08-30T03:36:33;7.32;;;6.45;;
55647;SDS011;45266;48.756;9.246;2022-08-30T03:37:35;8.65;;;7.10;;
55647;SDS011;45266;48.756;9.246;2022-08-30T03:38:37;7.93;;;7.07;;
55647;SDS011;45266;48.756;9.246;2022-08-30T03:39:39;7.45;;;6.68;;
55647;SDS011;45266;48.756;9.246;2022-08-30T03:40:41;8.93;;;6.78;;
55647;SDS011;45266;48.756;9.246;2022-08-30T03:41:43;7.20;;;6.50;;
55647;SDS011;45266;48.756;9.246;2022-08-30T03:42:46;8.95;;;7.18;;
55647;SDS011;45266;48.756;9.246;2022-08-30T03:43:48;7.53;;;6.82;;
55647;SDS011;45266;48.756;9.246;2022-08-30T03:44:50;9.23;;;6.75;;
55647;SDS011;45266;48.756;9.246;2022-08-30T03:45:52;8.18;;;7.35;;
55647;SDS011;45266;48.756;9.246;2022-08-30T03:46:54;7.32;;;6.55;;
55647;SDS011;45266;48.756;9.246;2022-08-30T03:47:56;9.57;;;7.00;;
55647;SDS011;45266;48.756;9.246;2022-08-30T03:48:57;8.10;;;7.15;;
55647;SDS011;45266;48.756;9.246;2022-08-30T03:49:59;7.68;;;6.88;;
55647;SDS011;45266;48.756;9.246;2022-08-30T03:51:02;7.20;;;6.53;;
55647;SDS011;45266;48.756;9.246;2022-08-30T03:52:06;8.23;;;7.03;;
55647;SDS011;45266;48.756;9.246;2022-08-30T03:53:08;8.15;;;7.35;;
55647;SDS011;45266;48.756;9.246;2022-08-30T03:54:10;7.22;;;6.45;;
55647;SDS011;45266;48.756;9.246;2022-08-30T03:55:12;9.40;;;6.95;;
55647;SDS011;45266;48.756;9.246;2022-08-30T03:56:14;7.22;;;6.30;;
55647;SDS011;45266;48.756;9.246;2022-08-30T03:57:16;9.95;;;6.70;;
55647;SDS011;45266;48.756;9.246;2022-08-30T03:58:22;8.43;;;6.82;;
55647;SDS011;45266;48.756;9.246;2022-08-30T03:59:24;10.45;;;7.03;;
55647;SDS011;45266;48.756;9.246;2022-08-30T04:00:26;7.93;;;7.07;;
55647;SDS011;45266;48.756;9.246;2022-08-30T04:01:28;10.60;;;7.25;;
55647;SDS011;45266;48.756;9.246;2022-08-30T04:02:30;8.70;;;6.75;;
55647;SDS011;45266;48.756;9.246;2022-08-30T04:03:31;8.18;;;6.68;;
55647;SDS011;45266;48.756;9.246;2022-08-30T04:04:33;8.02;;;6.63;;
55647;SDS011;45266;48.756;9.246;2022-08-30T04:05:35;7.30;;;6.03;;
55647;SDS011;45266;48.756;9.246;2022-08-30T04:06:37;10.20;;;6.90;;
55647;SDS011;45266;48.756;9.246;2022-08-30T04:07:39;8.02;;;6.63;;
55647;SDS011;45266;48.756;9.246;2022-08-30T04:08:41;10.50;;;6.55;;
55647;SDS011;45266;48.756;9.246;2022-08-30T04:09:45;11.82;;;7.43;;
55647;SDS011;45266;48.756;9.246;2022-08-30T04:10:47;7.63;;;6.82;;
55647;SDS011;45266;48.756;9.246;2022-08-30T04:11:49;8.48;;;6.78;;
55647;SDS011;45266;48.756;9.246;2022-08-30T04:12:51;9.85;;;7.30;;
55647;SDS011;45266;48.756;9.246;2022-08-30T04:13:53;9.30;;;7.28;;
55647;SDS011;45266;48.756;9.246;2022-08-30T04:14:56;7.40;;;6.65;;
55647;SDS011;45266;48.756;9.246;2022-08-30T04:15:59;7.72;;;6.88;;
55647;SDS011;45266;48.756;9.246;2022-08-30T04:17:01;8.90;;;7.03;;
55647;SDS011;45266;48.756;9.246;2022-08-30T04:18:03;8.63;;;7.32;;
55647;SDS011;45266;48.756;9.246;2022-08-30T04:19:05;7.10;;;6.28;;
55647;SDS011;45266;48.756;9.246;2022-08-30T04:20:07;8.02;;;6.75;;
55647;SDS011;45266;48.756;9.246;2022-08-30T04:21:09;10.27;;;7.25;;
55647;SDS011;45266;48.756;9.246;2022-08-30T04:22:14;8.18;;;6.78;;
55647;SDS011;45266;48.756;9.246;2022-08-30T04:23:16;8.57;;;6.75;;
55647;SDS011;45266;48.756;9.246;2022-08-30T04:24:18;9.45;;;7.35;;
55647;SDS011;45266;48.756;9.246;2022-08-30T04:25:20;8.30;;;6.57;;
55647;SDS011;45266;48.756;9.246;2022-08-30T04:26:21;10.40;;;7.57;;
55647;SDS011;45266;48.756;9.246;2022-08-30T04:27:29;7.72;;;7.03;;
55647;SDS011;45266;48.756;9.246;2022-08-30T04:28:31;8.13;;;7.32;;
55647;SDS011;45266;48.756;9.246;2022-08-30T04:29:35;9.02;;;6.75;;
55647;SDS011;45266;48.756;9.246;2022-08-30T04:30:37;9.95;;;7.88;;
55647;SDS011;45266;48.756;9.246;2022-08-30T04:31:44;9.63;;;7.50;;
55647;SDS011;45266;48.756;9.246;2022-08-30T04:32:46;13.30;;;7.97;;
55647;SDS011;45266;48.756;9.246;2022-08-30T04:33:48;8.45;;;7.07;;
55647;SDS011;45266;48.756;9.246;2022-08-30T04:34:50;9.43;;;7.22;;
55647;SDS011;45266;48.756;9.246;2022-08-30T04:36:00;10.45;;;7.43;;
55647;SDS011;45266;48.756;9.246;2022-08-30T04:37:04;8.27;;;7.22;;
55647;SDS011;45266;48.756;9.246;2022-08-30T04:38:10;7.43;;;6.70;;
55647;SDS011;45266;48.756;9.246;2022-08-30T04:39:13;9.45;;;7.22;;
55647;SDS011;45266;48.756;9.246;2022-08-30T04:40:17;9.73;;;7.45;;
55647;SDS011;45266;48.756;9.246;2022-08-30T04:41:19;8.25;;;7.15;;
55647;SDS011;45266;48.756;9.246;2022-08-30T04:42:22;7.75;;;7.00;;
55647;SDS011;45266;48.756;9.246;2022-08-30T04:43:25;10.93;;;7.90;;
55647;SDS011;45266;48.756;9.246;2022-08-30T04:44:27;8.90;;;7.25;;
55647;SDS011;45266;48.756;9.246;2022-08-30T04:45:29;8.18;;;7.28;;
55647;SDS011;45266;48.756;9.246;2022-08-30T04:46:31;9.95;;;7.80;;
55647;SDS011;45266;48.756;9.246;2022-08-30T04:47:34;8.90;;;7.32;;
55647;SDS011;45266;48.756;9.246;2022-08-30T04:48:36;8.68;;;7.78;;
55647;SDS011;45266;48.756;9.246;2022-08-30T04:49:38;10.38;;;7.43;;
55647;SDS011;45266;48.756;9.246;2022-08-30T04:50:41;10.23;;;7.63;;
55647;SDS011;45266;48.756;9.246;2022-08-30T04:51:43;9.38;;;7.38;;
55647;SDS011;45266;48.756;9.246;2022-08-30T04:52:45;12.82;;;7.82;;
55647;SDS011;45266;48.756;9.246;2022-08-30T04:53:47;10.32;;;7.55;;
55647;SDS011;45266;48.756;9.246;2022-08-30T04:54:55;9.85;;;6.88;;
55647;SDS011;45266;48.756;9.246;2022-08-30T04:55:58;8.80;;;7.43;;
55647;SDS011;45266;48.756;9.246;2022-08-30T04:57:00;8.70;;;7.78;;
55647;SDS011;45266;48.756;9.246;2022-08-30T04:58:01;9.52;;;7.65;;
55647;SDS011;45266;48.756;9.246;2022-08-30T04:59:06;8.07;;;7.25;;
55647;SDS011;45266;48.756;9.246;2022-08-30T05:00:09;9.02;;;7.82;;
55647;SDS011;45266;48.756;9.246;2022-08-30T05:01:13;10.32;;;7.70;;
55647;SDS011;45266;48.756;9.246;2022-08-30T05:02:20;8.30;;;7.43;;
55647;SDS011;45266;48.756;9.246;2022-08-30T05:03:36;8.90;;;7.20;;
55647;SDS011;45266;48.756;9.246;2022-08-30T05:04:38;10.52;;;7.20;;
55647;SDS011;45266;48.756;9.246;2022-08-30T05:06:02;7.70;;;7.00;;
55647;SDS011;45266;48.756;9.246;2022-08-30T05:07:04;9.15;;;7.85;;
55647;SDS011;45266;48.756;9.246;2022-08-30T05:08:07;9.38;;;8.15;;
55647;SDS011;45266;48.756;9.246;2022-08-30T05:09:10;12.55;;;8.43;;
55647;SDS011;45266;48.756;9.246;2022-08-30T05:10:12;8.85;;;7.68;;
55647;SDS011;45266;48.756;9.246;2022-08-30T05:11:14;8.15;;;7.35;;
55647;SDS011;45266;48.756;9.246;2022-08-30T05:12:16;11.40;;;7.90;;
55647;SDS011;45266;48.756;9.246;2022-08-30T05:13:19;9.50;;;7.60;;
55647;SDS011;45266;48.756;9.246;2022-08-30T05:14:35;11.32;;;7.97;;
55647;SDS011;45266;48.756;9.246;2022-08-30T05:15:37;9.68;;;7.47;;
55647;SDS011;45266;48.756;9.246;2022-08-30T05:16:40;8.52;;;7.68;;
55647;SDS011;45266;48.756;9.246;2022-08-30T05:17:42;9.80;;;7.68;;
55647;SDS011;45266;48.756;9.246;2022-08-30T05:18:44;10.02;;;8.00;;
55647;SDS011;45266;48.756;9.246;2022-08-30T05:19:47;11.68;;;8.23;;
55647;SDS011;45266;48.756;9.246;2022-08-30T05:20:49;10.32;;;8.20;;
55647;SDS011;45266;48.756;9.246;2022-08-30T05:21:51;9.55;;;8.55;;
55647;SDS011;45266;48.756;9.246;2022-08-30T05:22:52;9.95;;;8.18;;
55647;SDS011;45266;48.756;9.246;2022-08-30T05:23:55;8.68;;;7.85;;
55647;SDS011;45266;48.756;9.246;2022-08-30T05:24:58;9.27;;;7.85;;
55647;SDS011;45266;48.756;9.246;2022-08-30T05:26:03;13.38;;;8.48;;
55647;SDS011;45266;48.756;9.246;2022-08-30T05:27:09;9.50;;;7.75;;
55647;SDS011;45266;48.756;9.246;2022-08-30T05:28:11;7.97;;;7.18;;
55647;SDS011;45266;48.756;9.246;2022-08-30T05:29:13;8.90;;;7.93;;
55647;SDS011;45266;48.756;9.246;2022-08-30T05:30:15;13.60;;;8.70;;
55647;SDS011;45266;48.756;9.246;2022-08-30T05:32:21;8.10;;;7.28;;
55647;SDS011;45266;48.756;9.246;2022-08-30T05:33:23;9.07;;;8.02;;
55647;SDS011;45266;48.756;9.246;2022-08-30T05:34:25;9.68;;;8.25;;
55647;SDS011;45266;48.756;9.246;2022-08-30T05:35:29;11.32;;;7.97;;
55647;SDS011;45266;48.756;9.246;2022-08-30T05:36:32;10.85;;;7.93;;
55647;SDS011;45266;48.756;9.246;2022-08-30T05:37:35;9.55;;;7.47;;
55647;SDS011;45266;48.756;9.246;2022-08-30T05:38:37;13.07;;;8.07;;
55647;SDS011;45266;48.756;9.246;2022-08-30T05:39:42;7.80;;;6.95;;
55647;SDS011;45266;48.756;9.246;2022-08-30T05:40:52;8.95;;;7.55;;
55647;SDS011;45266;48.756;9.246;2022-08-30T05:41:55;9.10;;;7.30;;
55647;SDS011;45266;48.756;9.246;2022-08-30T05:42:57;9.48;;;7.20;;
55647;SDS011;45266;48.756;9.246;2022-08-30T05:44:00;9.93;;;7.47;;
55647;SDS011;45266;48.756;9.246;2022-08-30T05:45:03;9.10;;;7.28;;
55647;SDS011;45266;48.756;9.246;2022-08-30T05:46:07;10.63;;;6.78;;
55647;SDS011;45266;48.756;9.246;2022-08-30T05:47:11;7.80;;;6.53;;
55647;SDS011;45266;48.756;9.246;2022-08-30T05:48:12;8.68;;;7.40;;
55647;SDS011;45266;48.756;9.246;2022-08-30T05:49:14;9.15;;;7.28;;
55647;SDS011;45266;48.756;9.246;2022-08-30T05:50:17;9.73;;;6.78;;
55647;SDS011;45266;48.756;9.246;2022-08-30T05:51:20;7.72;;;6.93;;
55647;SDS011;45266;48.756;9.246;2022-08-30T05:52:23;7.93;;;6.80;;
55647;SDS011;45266;48.756;9.246;2022-08-30T05:53:25;8.55;;;7.00;;
55647;SDS011;45266;48.756;9.246;2022-08-30T05:54:27;8.25;;;7.32;;
55647;SDS011;45266;48.756;9.246;2022-08-30T05:55:29;9.30;;;7.20;;
55647;SDS011;45266;48.756;9.246;2022-08-30T05:56:32;9.32;;;7.38;;
55647;SDS011;45266;48.756;9.246;2022-08-30T05:57:37;8.95;;;7.25;;
55647;SDS011;45266;48.756;9.246;2022-08-30T05:58:40;9.32;;;7.85;;
55647;SDS011;45266;48.756;9.246;2022-08-30T05:59:43;10.30;;;7.68;;
55647;SDS011;45266;48.756;9.246;2022-08-30T06:00:45;10.45;;;7.90;;
55647;SDS011;45266;48.756;9.246;2022-08-30T06:01:47;9.23;;;7.88;;
55647;SDS011;45266;48.756;9.246;2022-08-30T06:02:51;9.00;;;8.10;;
55647;SDS011;45266;48.756;9.246;2022-08-30T06:03:55;12.43;;;8.18;;
55647;SDS011;45266;48.756;9.246;2022-08-30T06:05:03;11.90;;;8.50;;
55647;SDS011;45266;48.756;9.246;2022-08-30T06:06:06;14.32;;;9.23;;
55647;SDS011;45266;48.756;9.246;2022-08-30T06:07:07;11.43;;;9.45;;
55647;SDS011;45266;48.756;9.246;2022-08-30T06:08:14;14.48;;;10.00;;
55647;SDS011;45266;48.756;9.246;2022-08-30T06:09:16;9.25;;;8.32;;
55647;SDS011;45266;48.756;9.246;2022-08-30T06:10:18;8.07;;;7.32;;
55647;SDS011;45266;48.756;9.246;2022-08-30T06:11:21;13.40;;;8.60;;
55647;SDS011;45266;48.756;9.246;2022-08-30T06:12:26;8.70;;;7.80;;
55647;SDS011;45266;48.756;9.246;2022-08-30T06:13:28;9.20;;;7.78;;
55647;SDS011;45266;48.756;9.246;2022-08-30T06:14:29;8.07;;;7.20;;
55647;SDS011;45266;48.756;9.246;2022-08-30T06:15:31;9.63;;;7.63;;
55647;SDS011;45266;48.756;9.246;2022-08-30T06:16:33;12.23;;;8.45;;
55647;SDS011;45266;48.756;9.246;2022-08-30T06:17:36;9.40;;;7.30;;
55647;SDS011;45266;48.756;9.246;2022-08-30T06:18:39;10.98;;;7.68;;
55647;SDS011;45266;48.756;9.246;2022-08-30T06:19:41;9.25;;;8.30;;
55647;SDS011;45266;48.756;9.246;2022-08-30T06:20:43;9.60;;;7.68;;
55647;SDS011;45266;48.756;9.246;2022-08-30T06:21:51;9.18;;;7.95;;
55647;SDS011;45266;48.756;9.246;2022-08-30T06:22:52;9.10;;;8.18;;